FANDOM


Brs-logo This article is about a/an list of episode in Bikini Rangers Series.

This is a list of episodes for the television series Bikini Rangers. It not includes special episodes.

As of July 10, 2017 Bikini Rangers has been aired a total of 503 episodes in 10 seasons.

On August 19, 2007 and premiered season 10 on September 12, 2016. Seasons 1–4 were produced by Sony and the company was succeeded by the FremantleMedia North America, starting with season 5.

SeasonsEdit

Series overviewEdit

Series Episodes Originally aired
First aired Last aired
Icon-prns The Original Series 54 August 19, 2007 May 18, 2008
Icon-prjf Jungle Fury 50 September 5, 2008 May 22, 2009
Icon-rpm RPM 51 September 7, 2009 June 1, 2010
Icon-kakuranger Ninja Mask 50 September 6, 2010 June 27, 2011
Icon-goseiger Venice Storm 48 September 6, 2011 June 19,2012
Icon-dt Wild Tunder 55 September 10, 2012 June 24, 2013
Icon-oo omg! 42 September 9, 2013 June 23, 2014
Icon-zeo Mystic Force 50 September 8, 2014 June 22, 2015
Icon-ninninger Academic Dynasty 50 September 14, 2015 June 27, 2016
Icon-kyoryuger Dino Fusion 53 September 12, 2016 July 10, 2017
Icon-spaceblitz Space Blitz TBD September 19, 2017

Pre-Azoong SeriesEdit

The Original Series (2007-08)Edit

Series Episode Title Original air date Production code
1 1 Pilot Episode 8/19/07 101
2 2 Pilot Episode 2 8/26/07 102
3 3 Mechabusters 9/2/07 103
4 4 Tigerheart 9/9/07 104
5 5 The Legend of Phantom Sallon 9/16/07 105
6 6 Challenge 9/23/07 106
7 7 Onyx 9/30/07 107
8 8 Day of Chickentien 9/30/07 108
9 9 Black Dragon 10/07/07 109
10 10 Black Dragon 2 10/07/07 110
11 11 BlackDragon 3 10/13/07 111
12 12 Black Dragon 4 10/13/07 112
13 13 Black Dragon 5 10/14/07 113
14 14 Cyberbear 10/14/07 114
15 15 The Green Hope 10/20/07 115
16 16 Voice Strange 10/20/07 116
17 17 Home Again 10/21/07 117
18 18 Mystic Lights 10/28/07 118
19 19 Mystic Lights 2 10/28/07 119
20 20 Halloween 10/31/07 120
21 21 Thanksgiving 11/21/07 121
22 22 Thanksgiving 2 11/21/07 122
23 23 Shockwaveman 11/28/07 123
24 24 The Box 11/28/07 124
25 25 X-Mas Story 12/25/07 125
26 26 X-Mas Story 2 12/25/07 126
27 27 Top Model 2/9/08 127
28 28 Valentine 2/14/08 128
29 29 The Purple Spider 2/16/08 129
30 30 The A/V Man 2/23/08 130
31 31 The Hamton Pig 2/24/08 131
32 32 A Memory of Keisha 3/1/08 132
33 33 Supertek 3/8/08 133
34 34 Supertek 2 3/8/08 134
35 35 St. Patrick 3/15/08, 3/17/08 135
36 36 Easter 3/22/08 136
37 37 Welcome Back Miss Info 3/29/08 137
38 38 Return of Black Dragon Mask 3/30/08 138
39 39 Return of Black Dragon Mask 2 3/30/08 139
40 40 The Carrier 4/05/08 140
41 41 The Carrier 2 4/05/08 141
42 42 Bug! 4/12/08 142
43 43 Zapped! 4/19/08 143
44 44 Girl Swap 4/26/08 144
45 45 Family Feud 5/03/08 145
46 46 Family Feud 2 5/03/08 146
47 47 Jungle Fury 5/04/08 147
48 48 Bounty Hunter 5/09/08 148
49 49 Fair Game 5/10/08 149
50 50 Dark Whip 5/11/08 150
51 51 Secert Within 5/17/08 151
52 52 Doomsday 5/18/08 152
53 53 Doomsday 2 5/18/08 153
54 54 Doomsday 3 5/18/08 154

Azoong SeriesEdit

Jungle Fury (2008-09)Edit

Series Episode Title Original air date Production code
55 1 The New Team 9/5/08 201
56 2 Spirit Complete 9/5/08 202
57 3 Spirituide 9/12/08 203
58 4 Iron-Fist Chicken 9/19/08 204
59 5 Roof Kanal 9/26/08 205
60 6 Family Reunion 10/3/08 206
61 7 Target! 10/10/08 207
62 8 Keisha's Cat 10/17/08 208
63 9 Crimson Inscet Part 1 10/24/08 209
64 10 Crimson Inscet Part 2 10/24/08 210
65 11 Crimson Inscet Part 3 10/24/08 211
66 12 The Good,The Bad ,The Halloween 10/31/08 212
67 13 Dream Nightmare 11/7/08 213
68 14 Samurai Sword 11/14/08 214
69 15 Big Trouble in Toy-Kio 11/21/08 215
70 16 Evil Turkey 11/27/08 216
71 17 Black Twlight 11/28/08 217
72 18 Slime Ooze Flu 12/5/08 218
73 19 The Sprit Part 1 12/12/08 219
74 20 The Sprit Part 2 12/12/08 220
75 21 The Sprit Part 3 12/12/08 221
76 22 Mandy Lynn Cired Bellafly 1/16/09 222
77 23 Purple Haze 1/23/09 223
78 24 I Have Pinocchio's Mask 1/30/09 224
79 25 Santi Sprit 2/7/09 225
80 26 My Valentine Part 1 2/14/09 226
81 27 My Valentine Part 2 2/14/09 227
82 28 Dark Flute Part 1 2/21/09 228
83 29 Dark Flute Part 2 2/21/09 229
84 30 Fear and the Phantom 2/27/09 230
85 31 Blue, Twin Danger! 3/6/09 231
86 32 Luck O' Gold 3/13/09, 3/17/09 232
87 33 Samurai Swords' Steeling 3/20/09 233
88 34 Kidnapped Part 1 3/27/09 234
89 35 Kidnapped Part 2 3/27/09 235
90 36 The War Part 1 4/3/09 236
91 37 The War Part 2 4/3/09 237
92 38 Happy Brithday Nikki Jayne 4/10/09 238
93 39 Heavy Metal Gear 4/17/09 239
94 40 Red and Yellow Ruby 4/17/09 240
95 41 Blue and Orange Stone 4/17/09 241
96 42 Green and Purple Amber 4/17/09 242
97 43 The Black Oynx 4/24/09 243
98 44 Revenge of Black Dragon Mask Part 1 5/1/09 244
99 45 Revenge of Black Dragon Mask Part 2 5/1/09 245
100 46 Duel of Super Mob-Kaws Red 5/8/09 246
101 47 Marliyn the Monkey 5/15/09 247
102 48 Ready to Rumble 5/22/09 248
103 49 Path to the Hero 5/22/09 249
104 50 That's Final Fury 5/22/09 250

RPM (2009-10)Edit

Series Episode Title Original air date Production code
105 1 The Road to Corinth 9/7/09 301
106 2 Cyberskull Everywhere 9/7/09 302
107 3 Superherione Among Us 9/8/09 303
108 4 Grand Prix Mecha 9/8/09 304
109 5 Click, Click, Zoom 9/15/09 305
110 6 Go For The Yellow 9/22/09 306
111 7 Media Blitz 9/29/09 307
112 8 Stop the Presses 10/6/09 308
113 9 Circit Story 10/13/09 309
114 10 The Ice Shark Cometh 10/20/09 310
115 11 The Dark Rangers Part 1 10/27/09 311
116 12 The Dark Rangers Part 2 10/27/09 312
117 13 The Dark Rangers Part 3 10/31/09 313
118 14 Venjix Comes Alive 11/03/09 314
119 15 The Monster Diaries 11/10/09 315
120 16 Moondance Blues 11/17/09 316
121 17 Turbo Blue 11/24/09 317
122 18 Speed Yellow 12/01/09 318
123 19 Racer Red Part 1 12/08/09 319
124 20 Racer Red Part 2 12/08/09 320
125 21 Emmanuelle's Quest 12/15/09 321
126 22 Fly Girls Part 1 12/22/09 322
127 23 Fly Girls Part 2 12/22/09 323
128 24 I'm Dreaming of a Siren White 12/25/09 324
129 25 Let's The Journey Begins 1/26/10 325
130 26 Briana and Tila's Excellent Adventure 2/2/10 326
131 27 Turbo Blue's Gone Bad 2/9/10, 2/14/10 327
132 28 Blame it on Jenna 2/16/10 328
133 29 Lights, Camera and... Action! 2/23/10 329
134 30 The Perfect Stormer 3/2/10 330
135 31 Priya Rai's Upgrade 3/9/10 331
136 32 Leprechaun 3/16/10, 3/17/10 332
137 33 Oynx PurpleViolet 3/23/10 333
138 34 Mercy Part 1 3/30/10 334
139 35 Mercy Part 2 3/30/10 335
140 36 Mercy Part 3 3/30/10 336
141 37 Control-Alt-Delete 4/6/10 337
142 38 Azoong Explains It All 4/13/10 338
143 39 The Dome Dolls 4/20/10 339
144 40 Ancient History 4/27/10 340
145 41 Key to the Past Part 1 5/4/10 341
146 42 Key to The Past Part 2 5/4/10 342
147 43 Not So Simple 5/11/10 343
148 44 Sister Keeper Part 1 5/18/10 344
149 45 Sister Keeper Part 2 5/18/10 345
150 46 Sister Keeper Part 3 5/18/10 346
151 47 Beyond A Doubt 5/25/10 347
152 48 If Venjix Won? 5/25/10 348
153 49 End Game 6/1/10 349
154 50 Danger and Destiny Part 1 6/1/10 350
155 51 Danger and Destiny Part 2 6/1/10 351

Ninja Mask (2010-11)Edit

Series Episode Title Original air date Production Code
156 1 Prelude to a Mask 9/6/10 401
157 2 Darkness Awakening 9/7/10 402
158 3 Double Duty 9/14/10 403
159 4 Spin It, Spin It Good Taylor 9/21/10 404
160 5 Double-Edged Blake 9/28/10 405
161 6 The Wild Wipeout 10/5/10 406
162 7 All About Vanessa 10/12/10 407
163 8 Shell Shocked 10/19/10 408
164 9 Nightmare Dreams 10/26/10, 10/31/10 409
165 10 Stolen Beauty 11/2/10 410
166 11 Identity Crisis Part 1 11/9/10 411
167 12 Identity Crisis Part 2 11/9/10 412
168 13 Ghosts in the Machine Part 1 11/16/10 413
169 14 Ghosts in the Machine Part 2 11/16/10 414
170 15 Reflections 11/23/10 415
171 16 Swiss Family Thanksgiving 11/25/10 416
172 17 Meet Kim & Kourtney Kardashian 11/30/10 417
173 18 Never Give Up! 12/7/10 418
174 19 Secrets And Lies 12/14/10 419
175 20 The Dawn Necessities 12/21/10 420
176 21 Home for the Holidays Part 1 12/25/10 421
177 22 Home for the Holidays Part 2 12/25/10 422
178 23 Home for the Holidays Part 3 12/25/10 423
179 24 Alone But Never Alone 1/24/11 424
180 25 The Clueless of Friendship 2/7/11 425
181 26 Taylor's Valentine Adventure 2/14/11 426
182 27 Stuck In Jada Fire With You 2/21/11 427
183 28 Darkness Before the Dawn 2/28/11 428
184 29 Phantasmagoric Persia Pele 3/7/11 429
185 30 O, Sister, Who Art Thou? 3/14/11 430
186 31

Workin' On The Leprechan's Gang

3/17/11 431
187 32 My Sister In Spirit 3/21/11 432
188 33 The New Ranger 3/27/11 433
189 34 Operation: Free Azoong (1) 4/4/11 434
190 35 Evolution Revolution Time (2) 4/4/11 435
191 36 The Fight Towards History (3) 4/4/11 436
192 37 Minka-Mania 4/11/11 437
193 38 It Can't Be! Count Ghetto 4/18/11 438
194 39 Pelham Beach Club 4/25/11 439
195 40 RPM Rangers to the Rescue Part 1 5/2/11 440
196 41 RPM Rangers to the Rescue Part 2 5/2/11 441
197 42 Absolute Justice 5/9/11 442
198 43 Bad To The Bones 5/16/11 443
199 44 Now You See It, Now You Don't 5/23/11 444
200 45 Count Ghetto on the Loose 6/6/11 445
201 46 As Make The World Turns 6/13/11 446
202 47 When Knights Fall... 6/20/11 447
203 48 End of the Ninja Mask Part 1 6/27/11 448
204 49 End of the Ninja Mask Part 2 6/27/11 449
205 50 End of the Ninja Mask Part 3 6/27/11 450

Post-Azoong/ Indigo SeriesEdit

Venice Storm (2011-2012)Edit

Series Episodes Title Original air date Production
206 1 The Team Unites 9/6/11 501
207 2 Test of the Leader 9/6/11 502
208 3 Fish Out of Water 9/13/11 503
209 4 Looming Thunder 9/20/11 504
210 5 Twilight Thunder Rangers Part I 9/27/11 505
211 6 Twilight Thunder Rangers Part II 9/27/11 506
212 7 Twilight Thunder Rangers Part III 9/27/11 507
213 8 Sticks and Stones 10/4/11 508
214 9 Day Off 10/11/11 509
215 10 There Go the Brides 10/18/11 510
216 11 Twilight Thunder Rangers Returns Part I 10/25/11 511
217 12 Twilight Thunder Rangers Returns Part II 10/25/11 512
218 13 Twilight Thunder Rangers Returns Part III 10/31/11 513
219 14 Twilight Thunder Rangers Returns Part IV 10/31/11 514
220 15 Punch-a-Bozo! 11/2/11 515
221 16 Heidi's Challenge 11/16/11 516
222 17 Forest for the Trees 11/23/11 517
223 18 I've Got a Spell on Black 11/30/11 518
224 19 Deal with Joker 12/7/11 519
225 20 I'm Desperate to Get Rich Off My Kid 12/14/11 520
226 21 Unexpected Arrival Part I 12/21/11 521
227 22 Unexpected Arrival Part II 12/21/11 522
228 23 Unexpected Arrival Part III 12/21/11 523
229 24 A Christmas Season to Remember 12/25/11 524
230 25 Room for One More 2/7/12 525
231 26 Valentine Party Monsters 2/14/12 526
232 27 The Blue and the Fetish 2/21/12 527
233 28 Epic on the Move Part I 2/28/12 528
234 29 Epic on the Move Part II 2/29/12 529
235 30 Team Sprit 3/6/12 530
236 31 Showdown Between Geniuses 3/13/12 531
237 32 Irish Tengen Gate 3/17/12, 3/20/12 532
238 33 Broken Dreams 3/27/12 533
239 34 Switcharoo! 4/3/12 534
240 35 Against the Odds (I) 4/10/12 535
241 36 Scandal Chaos (II) 4/10/12 536
242 37 The Ultimate Duel (III) 4/10/12 537
243 38 The Power of the Burst Mode 5/1/12 538
244 39 Clash of the Ninja Mask Part I 5/8/12 539
245 40 Clash of the Ninja Mask Part II 5/8/12 540
246 41 General Deception Part I 5/15/12 541
247 42 General Deception Part II 5/15/12 542
248 43 Eye of The Storm 5/22/12 543
249 44 Exploding Bonds of Friendship! 5/29/12 544
250 45 Justice Leauge Rangers 6/5/12 545
251 46 Down and Dirty 6/12/12 546
252 47 Storm Before the Calm Part I 6/19/12 547
253 48 Storm Before the Calm Part II 6/19/12 548

Wild Thunder (2012-2013)Edit

Series Episodes Title Original air date Production Code
254 1 In The Beginning, Part I 9/10/12 601
255 2 In The Beginning, Part II 9/10/12 602
256 3 The Shooting Star 9/17/12 603
257 4 Target Rangers 9/17/12 604
258 5 For Cryin' Out Loud 9/24/12 605
259 6 Shell Game 9/24/12 606
260 7 A Sticky Situation 10/1/12 607
261 8 Wave Goodbye 10/1/12 608
262 9 Cody is Missing..... 10/8/12 609
263 10 Matter of Trust 10/8/12 610
264 11 The Power of Fang, Part I 10/15/12 611
265 12 The Power of Fang, Part II 10/15/12 612
266 13 Game On! 10/22/12 613
267 14 Jealousy's Just Reward 10/22/12 614
268 15 Diva in Distress 11/12/12 615
269 16 The Candidate 11/12/12 616
270 17 Invasion of the Ranger Snatchers 11/19/12^ 617
271 18 Monster Bash 11/19/12^ 618
272 19 Congo Robo 11/26/12 619
273 20 Beneath The Surface 11/26/12 620
274 21 Ocean Alert 12/10/12 621
275 22 Dark Days Night, Part I 12/10/12 622
276 23 Dark Days Night, Part II 12/17/12 623
277 24 Dark Days Night, Part III 12/17/12 624
278 25 Truth and Consequences 1/28/13 625
279 26 Protect the Machine! 1/28/13 626
280 27 Leader of the Whack (I) 2/4/13 627
281 28 Burning at Both Ends (II) 2/4/13 628
282 29 The Missing Bone 2/11/13 629
283 30 Stuck on Love 2/11/13 630
284 31 Bully for Nyomi Banxxx 2/18/13 631
285 32 Lost & Found in Translation 2/18/13 632
286 33 It's a Mad Mad Mackerel 2/25/13 633
287 34 Copy That 2/25/13 634
288 35 Triassic Triumph 3/4/13 635
289 36 A Star Is Torn 3/4/13 636
290 37 Shamrock Ruins 3/11/13 637
291 38 A Ranger Exclusive 3/18/13 638
292 39 A Small Problem 3/22/13 639
293 40 Tutenhawken's Curse 4/1/13 640
294 41 Disappearing Act (I) 4/8/13 641
295 42 Fighting Spirit (II) 4/8/13 642
296 43 The Passion of Chanel Preston 4/15/13 643
297 44 Another Song And Dance 4/22/13 644
298 45 Hawaii Isn't It Lava-O 4/29/13 645
299 46 Strange Relations 5/6/13 646
300 47 Thunder Storm Part I 5/13/13 647
301 48 Thunder Storm Part II 5/13/13 648
302 49 In Your Dreams 5/20/13 649
303 50 Drawn Into Danger 5/27/13 650
304 51 House of Cards 6/3/13 651
305 52 Stroke of Fate 6/10/13 652
306 53 A Test of Trust 6/17/13 653
307 54 Thunder Struck Part I 6/24/13 654
308 55 Thunder Struck Part II 6/24/13 655

^This episode was originally scheduled to air on Oct. 31, 2012, but LineOne postponed the airing of this and several other television programs to air news coverage on the Hurricane Sandy.

Transformation period SeriesEdit

omg! (2013-2014)Edit

Series Episodes Title Original air date Production Code
309 1 Origins, Part 1 9/9/13 701
310 2 Origins, Part 2 9/9/13 702
311 3 MegaZord Mission 9/16/13 703
312 4 She Blasted Me With Science 9/23/13 704
313 5 Stranger Danger, Part 1 9/30/13 705
314 6 Stranger Danger, Part 2 9/30/13 706
315 7 Last Laugh 10/7/13 707
316 8 The Vera Quest, Part 1 10/14/13 708
317 9 The Vera Quest, Part 2 10/14/13 709
318 10 Staying on Track 10/21/13 710
319 11 Clash for Control, Part 1 10/28/13 711
320 12 Clash for Control, Part 2 10/28/13 712
321 13 Maserati's Revenge 11/4/13 713
322 14 Recognition 11/11/13 714
323 15 Western Samurai 11/18/13 715
324 16 News Dismissed 12/2/13 716
325 17 The Messenger, Part 1 12/9/13 717
326 18 The Messenger, Part 2 12/9/13 718
327 19 Valentine Madness! 2/10/14 719
328 20 Raising Spirits 2/17/14 720
329 21 Pinky Dinky 2/24/14 721
330 22 United We Stand 3/3/14 722
331 23 Fight Against Fate, Part 1 3/10/14 723
332 24 Fight Against Fate, Part 2 3/10/14 724
333 25 Ultra Power, Part 1 3/24/14 725
334 26 Ultra Power, Part 2 3/24/14 726
335 27 High Roller Ultimate 3/31/14 727
336 28 Full Exposure 4/7/14 728
337 29 Clash of the Megazords, Part 1 4/14/14 729
338 30 Clash of the Megazords, Part 2 4/14/14 730
339 31 What Are We Looking For? 4/21/14 731
340 32 The Robot Ranger 4/28/14 732
341 33 Insomnia Recognition 5/5/14 733
342 34 Dogalooza 5/12/14 734
343 35 Pumastrophe 5/19/14 735
344 36 Missing 6/9/14 736
345 37 The Wild Thunder Cometh 6/9/14 737
346 38 Nikki Benz Unsure 6/16/14 738
347 39 Have omg! Rangers, Will Travel 6/16/14 739
348 40 A Calm Before the Storm 6/23/14 740
349 41 Endings, Part 1 6/23/14 741
350 42 Endings, Part 2 6/23/14 742

Mystic Force (2014-2015)Edit

Series Episodes Title Original air date Production Code
351 1 From Out of Nowhere (Part One) 9/8/14 801
352 2 From Out of Nowhere, (Part Two) 9/8/14 802
353 3 Titan Busters 9/15/14 803
354 4 Rock Solid 9/22/14 804
355 5 His Master's Voice 10/6/14 805
356 6 Never Stop Searching 10/6/14 806
357 7 Fire Heart 10/13/14 807
358 8 The Stranger Within (Part One) 10/20/14 808
359 9 The Stranger Within (Part Two) 10/20/14 809
360 10 Petrified Ava 10/27/14 810
361 11 The Gatekeeper (Part One) 11/10/14 811
362 12 The Gatekeeper (Part Two) 11/10/14 812
363 13 The Great Discovery 11/17/14 813
364 14 A Small Problem 11/17/14 814
365 15 Scaredy Cat 11/24/14 815
366 16 The Sixth Ranger 11/24/14 816
367 17 Inner Strength 12/1/14 817
368 18 The Thing In Your Heart 12/8/14 818
369 19 Soul Specter 12/15/14 819
370 20 Ranger Down 2/16/15 820
371 21 Dark Wish (Part One) 2/16/15 821
372 22 Dark Wish (Part Two) 2/23/15 822
373 23 Dark Wish (Part Three) 2/23/15 823
374 24 Number One at Karate 3/16/15 824
375 25 The Birth of the DarKnight Rider 3/16/15 825
376 26 A Monster of Global Proportions 3/22/15 826
377 27 When is a Ranger Not a Ranger? 3/30/15 827
378 28 Kendra Just Wants to Have Fun 4/13/15 828
379 29 Lights, Camera, Action 4/20/15 829
380 30 Scavenger Hunt 4/20/15 830
381 31 The Power Transfer (Part One) 4/27/15 831
382 32 The Power Transfer (Part Two) 4/27/15 832
383 33 Necrolai's Last Stand 5/4/15 833
384 34 The Joke's on Blue 5/11/15 834
385 35 Taylor Wane's Trial 5/11/15 835
386 36 Heir Apparent (Part One) 5/18/15 836
387 37 Heir Apparent (Part Two) 5/18/15 837
388 38 The Light 5/25/15 838
389 39 The Hunter 5/25/15 839
390 40 Hard Heads 6/1/15 840
391 41 The Snow Princess 6/1/15 841
392 42 Light Source (Part One) 6/8/15 842
393 43 Light Source (Part Two) 6/8/15 843
394 44 Best Man for the Job 6/15/15 844
395 45 Rangers of Two Worlds (Part One) 6/15/15 845
396 46 Rangers of Two Worlds (Part Two) 6/15/15 846
397 47 The Return of Dana Vespoli 6/22/15 847
398 48 Mystic Fate (Part One) 6/22/15 848
399 49 Mystic Fate (Part Two) 6/22/15 849
400 50 Mystic Fate (Part Three) 6/22/15 850

Academic Dynasty (2015-2016)Edit

Series Episodes Title Original air date Production Code
401 1 We're Nippon Rangers! (Part One) 9/14/15 901
402 2 We're Nippon Rangers! (Part Two) 9/14/15 902
403 3 Heart of Blue 9/21/15 903
404 4 Formidable RZA Gabi 9/21/15 904
405 5 At All Cost 10/5/15 905
406 6 UFOzord or Not 10/5/15 906
407 7 Spiriting Away 10/12/15 907
408 8 Follow the Ranger 10/12/15 908
409 9 Both Sides Now 10/19/15 909
410 10 Yee-haw! The Gold Wrangler Star (Part One) 10/19/15 910
411 11 Yee-haw! The Gold Wrangler Star (Part Two) 10/26/15 911
412 12 Yee-haw! The Gold Wrangler Star (Part Three) 10/26/15 912
413 13 Ninja Sports Fall Festival! 11/2/15 913
414 14 Scandal Scam! 11/2/15 914
415 15 Sensual Jane is a Super Ninja? 11/9/15 915
416 16 Good Bye, Wrangler Star! 11/9/15 916
417 17 Face to Face (Part One) 11/16/15 917
418 18 Face to Face (Part Two) 11/16/15 918
419 19 The Samurai Woman (Part One) 11/30/15 919
420 20 The Samurai Woman (Part Two) 11/30/15 920
421 21 Super Combination! 12/7/15 921
422 22 Just Like Me 12/7/15 922
423 23 Behind the Scenes 12/14/15 923
424 24 Ninja Christmas Special 12/14/15 924
425 25 The Chilling Arrival of Western Yokai! 2/8/16 925
426 26 Beware of Count Dracula 2/8/16 926
427 27 Wrangler Star vs. The Wolfman 2/15/16 927
428 28 The Kibaoni Ninja Squad 2/15/16 928
429 29 Definitive Edition of Ninja 2/22/16 929
430 30 Ninja Day Festival! 2/22/16 930
431 31 Kung-Fu Quest (Part One) 3/21/16 931
432 32 Kung-Fu Quest (Part Two) 3/21/16 932
433 33 Enter Serena Red, Legendary Gossip Ninja Mask! 3/28/16 933
434 34 The Kunoichi That Loved Brandy Aniston 3/28/16 934
435 35 Tasha Reign, the Glorious Super Star (Part One) 4/18/16 935
436 36 Tasha Reign, the Glorious Super Star (Part Two) 4/18/16 936
437 37 The Road to Last Ninja 5/2/16 937
438 38 Sarah Vandella Loves Mia Lelani? 5/2/16 938
439 39 One Gets Away 5/9/16 939
440 40 Once A Mystic Ranger (Part One) 5/9/16 940
441 41 Once A Mystic Ranger (Part Two) 5/16/16 941
442 42 One Fine Day 5/16/16 942
443 43 Things Not Said 5/23/16 943
444 44 Dinozord Unplugged 5/23/16 944
445 45 The Kibaoni Party! 6/6/16 945
446 46 The Kibaoni Wars: The Empire Strikes Back 6/6/16 946
447 47 Way Back When 6/20/16 947
448 48 Nothing to Lose 6/20/16 948
449 49 The Final Ninja Battle (Part One) 6/27/16 949
450 50 The Final Ninja Battle (Part Two) 6/27/16 950

Dino Fusion (2016-2017)Edit

Series Episodes Title Original air date Production Code
451 1 Day of the Dino Fusion, Part One 9/12/16 1001
452 2 Day of the Dino Fusion, Part Two 9/12/16 1002
453 3 Sigh of the Raptorzord 9/19/16 1003
454 4 Breaking Mercedes 9/19/16 1004
455 5 The Tooth Hurts 9/26/16 1005
456 6 Dance the Night Away 9/26/16 1006
457 7 Good Karma, Bad Karma 10/3/16 1007
458 8 Pushed to the Edge 10/3/16 1008
459 9 Evil of a Chance, Part One 10/10/16 1009
460 10 Evil of a Chance, Part Two 10/10/16 1010
461 11 Evil of a Chance, Part Three 10/17/16 1011
462 12 Can't Win Them All 10/17/16 1012
463 13 A Taste of Black Poison 10/24/16 1013
464 14 The Protect of Life 10/24/16 1014
465 15 Way of the Master 11/14/16 1015
466 16 Keeper Brazil is Missing 11/14/16 1016
467 17 World Famous! (In New Zealand) 11/21/16 1017
468 18 Deep Down Under (In Australia) 11/21/16 1018
469 19 Bad to the Bone 11/28/16 1019
470 20 Friends Don't Fade Away 11/28/16 1020
471 21 No "I" in Leader 12/5/16 1021
472 22 Can't Trust in Me 12/5/16 1022
473 23 True Friends, True Spirits 12/12/16 1023
474 24 Race to Rescue Christmas 12/12/16 1024
475 25 Nightmare in Amber Beach 1/30/17 1025
476 26 A Date with Danger 1/30/17 1026
477 27 Evil Roar of the Tyranno Gunn, Part One 2/6/17 1027
478 28 Evil Roar of the Tyranno Gunn, Part Two 2/6/17 1028
479 29 Samba Jasmine Jae! 2/13/17 1029
480 30 The Dino Maximum Seven 2/13/17 1030
481 31 Path of the Titanozord, Part One 3/27/17 1031
482 32 Path of the Titanozord, Part Two 3/27/17 1032
483 33 Silver for Disaster 4/3/17 1033
484 34 Riches and Rags 4/3/17 1034
485 35 Love at First Fight 4/24/17 1035
486 36 Home Run Baseball Team 4/24/17 1036
487 37 Freaky Swapday 5/1/17 1037
488 38 The Zombie Holiday 5/1/17 1038
489 39 Fools or Trial 5/8/17 1039
490 40 The Dark Fusion Energem 5/8/17 1040
491 41 The 11 Dino Fusion Rangers 5/22/17 1041
492 42 Movie Madness! 6/5/17 1042
493 43 Ninja Dynasty 6/12/17 1043
494 44 Here Comes Spring! 6/12/17 1044
495 45 Silver of Danger! 6/18/17 1045
496 46 Forever Red: Ten Years Later 6/18/17 1046
497 47 Save the Last Chance 6/26/17 1047
498 48 The Bird-Man's Herald, Part One 6/26/17 1048
499 49 The Bird-Man's Herald, Part Two 7/3/17 1049
500 50 The Edge of Extinction 7/3/17 1050
501 51 Path of the Righteous 7/10/17 1051
502 52 The Final Countdown, Part One 7/10/17 1052
503 53 The Final Countdown, Part Two 7/10/17 1053
Brs-logo
The Original Series  • Jungle Fury  • RPM  • Ninja Mask  • Venice Storm  • Wild Thunder  • omg!  • Mystic Force  • Academic Dynasty  • Dino Fusion  • Space Blitz
ViewTalkEdit

Ad blocker interference detected!


Wikia is a free-to-use site that makes money from advertising. We have a modified experience for viewers using ad blockers

Wikia is not accessible if you’ve made further modifications. Remove the custom ad blocker rule(s) and the page will load as expected.